createdAt,value
2022-07-29T00:00:30.328Z,28.12
2022-07-29T00:05:32.301Z,28.01
2022-07-29T00:10:34.337Z,28.36
2022-07-29T00:15:36.313Z,28.48
2022-07-29T00:20:38.146Z,28.66
2022-07-29T00:25:40.042Z,28.76
2022-07-29T00:30:44.262Z,29.02
2022-07-29T00:35:46.107Z,29.28
2022-07-29T00:40:48.597Z,29.30
2022-07-29T00:45:50.499Z,29.55
2022-07-29T00:50:52.634Z,29.87
2022-07-29T00:55:56.180Z,29.97
2022-07-29T01:00:59.212Z,30.01
2022-07-29T01:06:01.567Z,30.41
2022-07-29T01:11:04.039Z,30.47
2022-07-29T01:16:14.300Z,30.42
2022-07-29T01:21:34.438Z,30.42
2022-07-29T01:26:50.228Z,30.32
2022-07-29T01:31:59.249Z,30.44
2022-07-29T01:37:16.493Z,30.49
2022-07-29T01:42:36.604Z,30.57
2022-07-29T01:47:44.607Z,30.67
2022-07-29T01:52:57.178Z,31.24
2022-07-29T01:58:01.162Z,30.99
2022-07-29T02:03:10.055Z,31.16
2022-07-29T02:08:14.419Z,31.20
2022-07-29T02:13:19.823Z,31.43
2022-07-29T02:18:25.197Z,31.38
2022-07-29T02:23:27.762Z,31.33
2022-07-29T02:28:31.136Z,31.61
2022-07-29T02:33:34.381Z,31.46
2022-07-29T02:38:52.763Z,31.81
2022-07-29T02:43:58.331Z,32.05
2022-07-29T02:49:24.984Z,32.20
2022-07-29T02:54:42.231Z,32.37
2022-07-29T02:59:46.622Z,32.35
2022-07-29T03:04:51.582Z,32.39
2022-07-29T03:09:53.971Z,32.46
2022-07-29T03:14:57.607Z,32.30
2022-07-29T03:20:00.513Z,32.66
2022-07-29T03:25:10.291Z,32.62
2022-07-29T03:30:18.374Z,32.69
2022-07-29T03:35:23.846Z,32.70
2022-07-29T03:40:39.061Z,32.80
2022-07-29T03:45:45.525Z,33.03
2022-07-29T03:50:47.480Z,33.03
2022-07-29T03:55:54.440Z,33.19
2022-07-29T04:00:57.565Z,33.31
2022-07-29T04:06:07.547Z,33.78
2022-07-29T04:11:09.407Z,33.72
2022-07-29T04:16:11.295Z,33.90
2022-07-29T04:21:13.130Z,33.94
2022-07-29T04:26:15.028Z,34.24
2022-07-29T04:31:16.956Z,34.44
2022-07-29T04:36:29.255Z,34.64
2022-07-29T04:41:33.426Z,34.52
2022-07-29T04:46:36.424Z,34.61
2022-07-29T04:51:39.106Z,34.68
2022-07-29T04:56:40.947Z,34.75
2022-07-29T05:01:42.954Z,34.82
2022-07-29T05:06:44.935Z,35.03
2022-07-29T05:11:47.087Z,34.66
2022-07-29T05:16:50.567Z,34.76
2022-07-29T05:21:52.557Z,34.55
2022-07-29T05:26:54.406Z,34.46
2022-07-29T05:31:56.243Z,34.60
2022-07-29T05:36:58.909Z,34.34
2022-07-29T05:42:00.745Z,34.25
2022-07-29T05:47:02.565Z,34.33
2022-07-29T05:52:04.788Z,34.28
2022-07-29T05:57:06.865Z,34.30
2022-07-29T06:02:08.791Z,34.29
2022-07-29T06:07:12.416Z,34.08
2022-07-29T06:12:14.378Z,34.41
2022-07-29T06:17:17.507Z,34.32
2022-07-29T06:22:19.541Z,34.29
2022-07-29T06:27:21.380Z,34.24
2022-07-29T06:32:23.417Z,34.16
2022-07-29T06:37:29.278Z,34.09
2022-07-29T06:42:34.209Z,34.33
2022-07-29T06:47:36.804Z,34.31
2022-07-29T06:52:39.871Z,34.20
2022-07-29T06:57:42.136Z,34.07
2022-07-29T07:02:44.041Z,34.09
2022-07-29T07:07:45.924Z,33.93
2022-07-29T07:12:47.721Z,33.88
2022-07-29T07:17:50.433Z,33.78
2022-07-29T07:22:52.266Z,33.47
2022-07-29T07:27:54.131Z,33.71
2022-07-29T07:32:56.509Z,33.54
2022-07-29T07:37:58.671Z,33.63
2022-07-29T07:43:00.518Z,33.28
2022-07-29T07:48:02.384Z,32.78
2022-07-29T07:53:04.317Z,32.85
2022-07-29T07:58:06.134Z,32.45
2022-07-29T08:03:09.805Z,32.30
2022-07-29T08:08:19.507Z,32.42
2022-07-29T08:13:32.511Z,32.18
2022-07-29T08:18:34.631Z,31.80
2022-07-29T08:23:46.101Z,32.04
2022-07-29T08:28:51.903Z,31.81
2022-07-29T08:33:53.837Z,31.60
2022-07-29T08:38:55.887Z,31.47
2022-07-29T08:43:57.929Z,30.83
2022-07-29T08:48:59.902Z,30.74
2022-07-29T08:54:02.239Z,30.65
2022-07-29T08:59:06.159Z,30.74
2022-07-29T09:04:12.512Z,30.34
2022-07-29T09:09:15.534Z,30.31
2022-07-29T09:14:17.497Z,30.21
2022-07-29T09:19:25.696Z,29.91
2022-07-29T09:24:41.269Z,29.61
2022-07-29T09:29:43.270Z,29.47
2022-07-29T09:34:45.169Z,29.36
2022-07-29T09:39:47.236Z,28.97
2022-07-29T09:44:51.379Z,28.96
2022-07-29T09:49:54.891Z,28.36
2022-07-29T09:55:17.917Z,28.09
2022-07-29T10:00:24.010Z,27.81
2022-07-29T10:05:36.207Z,27.75
2022-07-29T10:10:41.439Z,27.31
2022-07-29T10:15:47.408Z,26.66
2022-07-29T10:20:49.869Z,26.64
2022-07-29T10:25:51.808Z,26.33
2022-07-29T10:31:00.333Z,25.85
2022-07-29T10:36:20.421Z,25.09
2022-07-29T10:41:44.239Z,25.56
2022-07-29T10:46:47.478Z,25.42
2022-07-29T10:51:58.790Z,25.02
2022-07-29T10:57:17.799Z,25.38
2022-07-29T11:02:42.131Z,25.22
2022-07-29T11:08:21.034Z,24.94
2022-07-29T11:13:51.216Z,24.94
2022-07-29T11:19:26.293Z,24.97
2022-07-29T11:24:35.845Z,24.53
2022-07-29T11:29:50.653Z,24.15
2022-07-29T11:35:22.326Z,24.35
2022-07-29T11:40:42.608Z,24.35
2022-07-29T11:45:48.150Z,24.46
2022-07-29T11:50:50.874Z,23.87
2022-07-29T12:01:19.669Z,23.61
2022-07-29T12:06:21.568Z,23.83
2022-07-29T12:11:23.806Z,23.78
2022-07-29T12:16:36.184Z,23.70
2022-07-29T12:21:49.436Z,23.76
2022-07-29T12:27:00.743Z,23.82
2022-07-29T12:32:14.513Z,23.76
2022-07-29T12:37:17.578Z,23.80
2022-07-29T12:42:19.476Z,24.15
2022-07-29T12:47:21.749Z,24.03
2022-07-29T12:52:33.510Z,24.16
2022-07-29T12:57:50.625Z,23.85
2022-07-29T13:02:57.661Z,23.32
2022-07-29T13:08:22.058Z,23.49
2022-07-29T13:13:24.601Z,23.38
2022-07-29T13:18:37.348Z,23.14
2022-07-29T13:23:39.629Z,23.08
2022-07-29T13:28:44.286Z,23.51
2022-07-29T13:33:46.278Z,23.29
2022-07-29T13:38:48.323Z,23.46
2022-07-29T13:43:50.223Z,23.23
2022-07-29T13:48:52.480Z,22.99
2022-07-29T13:53:54.393Z,22.68
2022-07-29T13:58:56.458Z,22.80
2022-07-29T14:03:58.552Z,22.97
2022-07-29T14:09:00.479Z,22.49
2022-07-29T14:14:02.605Z,22.52
2022-07-29T14:19:04.850Z,22.63
2022-07-29T14:24:16.209Z,22.58
2022-07-29T14:29:24.027Z,22.51
2022-07-29T14:34:40.666Z,22.60
2022-07-29T14:39:43.384Z,22.49
2022-07-29T14:44:45.419Z,22.40
2022-07-29T14:49:48.896Z,22.45
2022-07-29T14:54:50.781Z,22.01
2022-07-29T14:59:53.360Z,22.18
2022-07-29T15:04:55.266Z,22.03
2022-07-29T15:09:59.714Z,22.14
2022-07-29T15:15:01.748Z,22.09
2022-07-29T15:20:07.143Z,22.36
2022-07-29T15:25:09.543Z,22.33
2022-07-29T15:30:31.445Z,22.08
2022-07-29T15:35:40.610Z,22.35
2022-07-29T15:40:44.360Z,22.22
2022-07-29T15:46:05.160Z,22.55
2022-07-29T15:51:07.064Z,22.29
2022-07-29T15:56:09.081Z,22.26
2022-07-29T16:01:11.498Z,22.43
2022-07-29T16:06:14.236Z,22.68
2022-07-29T16:11:16.852Z,22.70
2022-07-29T16:16:19.183Z,22.72
2022-07-29T16:21:22.912Z,22.78
2022-07-29T16:26:25.531Z,22.91
2022-07-29T16:31:28.320Z,23.08
2022-07-29T16:36:31.105Z,23.00
2022-07-29T16:41:33.281Z,22.97
2022-07-29T16:46:39.029Z,23.30
2022-07-29T16:51:44.015Z,23.16
2022-07-29T16:56:46.181Z,23.43
2022-07-29T17:01:48.368Z,23.64
2022-07-29T17:06:50.876Z,23.25
2022-07-29T17:11:55.107Z,23.79
2022-07-29T17:17:03.032Z,23.50
2022-07-29T17:22:12.951Z,23.88
2022-07-29T17:27:20.830Z,23.90
2022-07-29T17:32:23.105Z,24.02
2022-07-29T17:37:25.089Z,24.16
2022-07-29T17:42:27.254Z,24.02
2022-07-29T17:47:29.456Z,24.34
2022-07-29T17:52:31.689Z,24.42
2022-07-29T17:57:34.415Z,24.44
2022-07-29T18:02:37.745Z,24.46
2022-07-29T18:07:39.802Z,24.88
2022-07-29T18:12:47.786Z,24.86
2022-07-29T18:17:56.988Z,24.58
2022-07-29T18:23:00.452Z,25.09
2022-07-29T18:28:04.652Z,25.19
2022-07-29T18:33:21.742Z,25.03
2022-07-29T18:38:24.108Z,25.37
2022-07-29T18:43:26.355Z,25.39
2022-07-29T18:48:28.259Z,25.32
2022-07-29T18:53:30.156Z,25.37
2022-07-29T18:58:33.470Z,25.33
2022-07-29T19:03:35.487Z,25.76
2022-07-29T19:08:37.364Z,25.75
2022-07-29T19:13:39.308Z,25.96
2022-07-29T19:18:41.855Z,26.06
2022-07-29T19:24:05.806Z,26.16
2022-07-29T19:29:07.287Z,26.36
2022-07-29T19:34:09.559Z,26.23
2022-07-29T19:39:11.773Z,26.72
2022-07-29T19:44:13.938Z,26.77
2022-07-29T19:49:16.331Z,26.83
2022-07-29T19:54:18.373Z,27.26
2022-07-29T19:59:24.599Z,26.93
2022-07-29T20:04:27.513Z,27.56
2022-07-29T20:09:29.406Z,27.57
2022-07-29T20:14:31.644Z,27.77
2022-07-29T20:19:33.900Z,27.87
2022-07-29T20:24:35.835Z,27.93
2022-07-29T20:29:38.488Z,28.32
2022-07-29T20:34:43.155Z,28.61
2022-07-29T20:39:47.942Z,28.58
2022-07-29T20:44:51.349Z,28.85
2022-07-29T20:49:53.333Z,28.94
2022-07-29T20:54:55.213Z,28.97
2022-07-29T20:59:57.087Z,29.17
2022-07-29T21:04:59.038Z,29.23
2022-07-29T21:10:00.943Z,30.19
2022-07-29T21:15:06.681Z,29.81
2022-07-29T21:20:09.121Z,29.80
2022-07-29T21:25:11.915Z,29.89
2022-07-29T21:30:14.915Z,29.96
2022-07-29T21:35:35.823Z,30.27
2022-07-29T21:40:39.561Z,30.03
2022-07-29T21:45:42.275Z,30.44
2022-07-29T21:50:44.493Z,30.44
2022-07-29T21:55:47.232Z,30.85
2022-07-29T22:00:50.219Z,32.43
2022-07-29T22:05:53.211Z,32.59
2022-07-29T22:10:55.286Z,33.06
2022-07-29T22:15:57.314Z,33.38
2022-07-29T22:20:59.185Z,33.86
2022-07-29T22:26:01.093Z,33.73
2022-07-29T22:31:03.206Z,33.80
2022-07-29T22:36:05.433Z,33.83
2022-07-29T22:41:07.381Z,34.26
2022-07-29T22:46:11.017Z,34.32
2022-07-29T22:51:13.748Z,34.23
2022-07-29T22:56:15.849Z,34.19
2022-07-29T23:01:38.014Z,34.34
2022-07-29T23:06:39.778Z,34.16
2022-07-29T23:11:41.777Z,34.60
2022-07-29T23:16:43.690Z,34.49
2022-07-29T23:21:45.579Z,34.83
2022-07-29T23:26:47.462Z,35.51
2022-07-29T23:31:49.333Z,36.52
2022-07-29T23:36:51.249Z,37.49
2022-07-29T23:41:53.383Z,37.21
2022-07-29T23:46:55.291Z,38.31
2022-07-29T23:51:57.249Z,39.57
2022-07-29T23:56:59.536Z,39.94
